Time;durP1;ratioP1;P1;durP2;ratioP2;P2;SDS_P1;SDS_P2;PMS_P1;PMS_P2;Temp;Humidity;BMP_temperature;BMP_pressure;BME280_temperature;BME280_humidity;BME280_pressure;Samples;Min_cycle;Max_cycle;Signal;HPM_P1;HPM_P2
2021/10/01 00:00:29;;;;;;;;;27.75;25.00;;;;;9.99;49.65;102823.88;5113118;28;11416;-79
2021/10/01 00:03:25;;;;;;;;;36.50;34.50;;;;;9.98;50.09;102836.06;5111714;28;11519;-78
2021/10/01 00:06:21;;;;;;;;;35.25;34.25;;;;;10.03;49.89;102836.88;5111799;28;11547;-76
2021/10/01 00:09:17;;;;;;;;;35.75;34.75;;;;;10.02;50.31;102837.16;5099037;28;11518;-79
2021/10/01 00:12:13;;;;;;;;;29.00;29.00;;;;;9.93;49.60;102845.16;5112765;28;11581;-81
2021/10/01 00:15:09;;;;;;;;;34.25;34.25;;;;;9.83;50.48;102841.56;5098938;28;11536;-77
2021/10/01 00:18:05;;;;;;;;;27.50;27.50;;;;;9.82;50.59;102845.44;5099001;28;11539;-77
2021/10/01 00:21:01;;;;;;;;;33.75;32.75;;;;;9.79;51.02;102846.78;5099116;28;11497;-78
2021/10/01 00:23:57;;;;;;;;;34.75;29.50;;;;;9.62;51.63;102847.03;5098593;28;12205;-77
2021/10/01 00:26:52;;;;;;;;;48.00;42.50;;;;;9.70;50.95;102843.72;5112464;28;12220;-77
2021/10/01 00:29:48;;;;;;;;;33.00;33.00;;;;;9.74;51.03;102852.31;5098702;28;11528;-77
2021/10/01 00:32:44;;;;;;;;;46.75;41.50;;;;;9.75;51.11;102838.22;5097925;28;12305;-77
2021/10/01 00:35:40;;;;;;;;;34.50;34.50;;;;;9.72;50.93;102846.22;5092079;28;11530;-77
2021/10/01 00:38:35;;;;;;;;;33.75;31.50;;;;;9.68;51.09;102842.34;5091189;28;11530;-79
2021/10/01 00:41:31;;;;;;;;;39.25;37.00;;;;;9.85;51.24;102837.41;5092000;28;11557;-77
2021/10/01 00:44:28;;;;;;;;;42.00;37.25;;;;;9.79;51.59;102843.19;5095830;28;12280;-77
2021/10/01 00:47:24;;;;;;;;;47.00;42.00;;;;;9.70;51.89;102834.63;5112348;28;12272;-78
2021/10/01 00:50:20;;;;;;;;;48.75;41.75;;;;;9.74;51.90;102832.97;5098640;28;11444;-78
2021/10/01 00:53:17;;;;;;;;;60.25;46.50;;;;;9.81;51.42;102843.75;5111825;28;11485;-76
2021/10/01 00:56:12;;;;;;;;;45.25;40.00;;;;;9.66;52.23;102834.34;5112508;28;11468;-75
2021/10/01 00:59:08;;;;;;;;;35.75;34.75;;;;;9.58;52.74;102840.38;5098649;28;11514;-77
2021/10/01 01:02:03;;;;;;;;;34.25;33.25;;;;;9.64;52.37;102828.25;5098457;28;11476;-77
2021/10/01 01:04:59;;;;;;;;;35.00;34.25;;;;;9.88;51.83;102838.78;5099420;28;12249;-77
2021/10/01 01:08:06;;;;;;;;;30.50;30.25;;;;;9.72;51.87;102833.22;5112464;28;12204;-80
2021/10/01 01:11:15;;;;;;;;;32.75;30.75;;;;;9.68;52.31;102836.81;5098561;28;11482;-77
2021/10/01 01:14:23;;;;;;;;;47.50;39.75;;;;;9.71;52.43;102839.84;5112820;28;12341;-77
2021/10/01 01:17:33;;;;;;;;;32.50;31.50;;;;;9.68;53.00;102832.13;5115754;28;11553;-77
2021/10/01 01:20:34;;;;;;;;;51.50;45.00;;;;;9.48;54.17;102838.41;5115458;28;11634;-77
2021/10/01 01:23:38;;;;;;;;;55.00;46.25;;;;;9.38;54.89;102840.31;5102136;28;11548;-76
2021/10/01 01:26:56;;;;;;;;;60.50;51.00;;;;;9.14;55.70;102840.78;5115899;28;11520;-77
2021/10/01 01:30:06;;;;;;;;;66.00;51.25;;;;;9.09;55.85;102846.25;5101974;28;11586;-76
2021/10/01 01:33:03;;;;;;;;;70.50;56.50;;;;;9.05;56.05;102838.81;5101188;28;11570;-76
2021/10/01 01:36:01;;;;;;;;;65.00;55.00;;;;;9.12;55.50;102834.72;5101692;28;11523;-77
2021/10/01 01:38:59;;;;;;;;;61.25;51.25;;;;;8.90;56.46;102839.56;5102644;28;11544;-76
2021/10/01 01:41:57;;;;;;;;;62.25;49.75;;;;;9.07;55.85;102833.84;5115165;28;11530;-77
2021/10/01 01:44:54;;;;;;;;;65.75;52.25;;;;;8.99;56.18;102842.63;5101655;28;11671;-77
2021/10/01 01:47:51;;;;;;;;;60.50;51.00;;;;;9.02;55.99;102836.56;5115311;28;12302;-77
2021/10/01 01:50:48;;;;;;;;;60.25;50.75;;;;;8.97;56.20;102844.81;5115076;28;11503;-77
2021/10/01 01:53:45;;;;;;;;;62.00;50.25;;;;;8.68;56.89;102839.69;5115115;28;11553;-77
2021/10/01 01:56:41;;;;;;;;;61.25;49.25;;;;;8.70;57.19;102839.41;5101563;28;11530;-77
2021/10/01 01:59:37;;;;;;;;;61.00;52.25;;;;;8.82;57.06;102840.06;5114993;28;11496;-76
2021/10/01 02:02:34;;;;;;;;;58.25;48.75;;;;;8.63;57.71;102845.16;5115035;28;11518;-76
2021/10/01 02:05:31;;;;;;;;;66.75;55.50;;;;;8.52;58.24;102844.28;5114534;28;11548;-77
2021/10/01 02:08:28;;;;;;;;;42.25;32.50;;;;;8.59;57.44;102850.41;5114929;28;11512;-76
2021/10/01 02:11:25;;;;;;;;;60.00;48.00;;;;;8.28;58.14;102856.72;5114607;28;11544;-76
2021/10/01 02:14:24;;;;;;;;;42.25;39.75;;;;;8.53;57.16;102853.38;5115049;28;11506;-78
2021/10/01 02:17:21;;;;;;;;;57.50;47.00;;;;;8.46;57.77;102858.28;5101199;28;11539;-77
2021/10/01 02:20:18;;;;;;;;;56.50;46.75;;;;;8.56;57.38;102855.59;5100885;28;12325;-77
2021/10/01 02:23:14;;;;;;;;;60.75;52.00;;;;;8.32;58.34;102855.09;5114632;28;12259;-76
2021/10/01 02:26:34;;;;;;;;;55.75;47.75;;;;;8.32;58.62;102857.84;5113445;28;11626;-76
2021/10/01 02:29:36;;;;;;;;;58.25;48.25;;;;;8.22;59.16;102853.09;5114347;28;11611;-78
2021/10/01 02:32:38;;;;;;;;;50.50;44.50;;;;;8.19;58.79;102856.38;5114399;28;11503;-77
2021/10/01 02:35:34;;;;;;;;;51.00;44.75;;;;;8.28;58.44;102856.72;5098140;28;11511;-76
2021/10/01 02:38:30;;;;;;;;;57.25;45.25;;;;;8.31;58.08;102854.28;5113880;28;11489;-77
2021/10/01 02:41:25;;;;;;;;;51.50;44.00;;;;;8.32;57.85;102855.09;5100291;28;11603;-77
2021/10/01 02:44:21;;;;;;;;;48.75;43.25;;;;;8.42;57.39;102848.88;5114047;28;11515;-75
2021/10/01 02:47:18;;;;;;;;;62.00;47.25;;;;;8.37;58.41;102852.44;5100629;28;11524;-76
2021/10/01 02:50:20;;;;;;;;;49.00;43.25;;;;;8.46;57.63;102856.34;5113812;28;11696;-76
2021/10/01 02:53:20;;;;;;;;;54.25;46.25;;;;;8.46;57.12;102855.53;5113843;28;11522;-76
2021/10/01 02:56:23;;;;;;;;;47.75;43.00;;;;;8.55;56.98;102853.94;5114091;28;11492;-76
2021/10/01 02:59:23;;;;;;;;;27.25;26.00;;;;;8.55;57.16;102854.78;5113814;28;11528;-76
2021/10/01 03:02:22;;;;;;;;;34.00;34.00;;;;;8.57;56.17;102860.00;5112038;28;11465;-77
2021/10/01 03:05:20;;;;;;;;;37.25;36.25;;;;;8.50;56.55;102867.69;5113670;28;12282;-76
2021/10/01 03:08:17;;;;;;;;;24.50;24.50;;;;;8.53;56.93;102862.47;5093929;28;11475;-77
2021/10/01 03:11:14;;;;;;;;;15.75;15.75;;;;;8.43;56.77;102869.81;5113720;28;11482;-77
2021/10/01 03:14:11;;;;;;;;;27.00;25.25;;;;;8.50;56.95;102874.03;5113619;28;12293;-78
2021/10/01 03:17:07;;;;;;;;;28.25;28.25;;;;;8.49;56.87;102877.06;5113347;28;11580;-76
2021/10/01 03:20:04;;;;;;;;;39.00;36.50;;;;;8.64;56.31;102868.91;5093308;28;11571;-77
2021/10/01 03:23:00;;;;;;;;;27.25;27.25;;;;;8.60;56.87;102862.25;5093093;28;11533;-75
2021/10/01 03:25:56;;;;;;;;;39.25;37.50;;;;;8.69;56.64;102876.38;5099095;28;11485;-76
2021/10/01 03:28:52;;;;;;;;;43.75;38.50;;;;;8.34;58.10;102867.53;5113049;28;11540;-76
2021/10/01 03:31:49;;;;;;;;;33.50;31.50;;;;;8.49;57.11;102872.38;5113083;28;11502;-76
2021/10/01 03:34:44;;;;;;;;;41.00;38.75;;;;;8.64;56.89;102882.69;5102752;28;11507;-76
2021/10/01 03:37:41;;;;;;;;;38.25;35.00;;;;;8.43;57.25;102876.16;5112993;28;11517;-76
2021/10/01 03:40:37;;;;;;;;;45.00;40.25;;;;;8.59;57.18;102882.66;5098763;28;11461;-76
2021/10/01 03:43:33;;;;;;;;;32.00;32.00;;;;;8.52;57.23;102888.41;5111025;28;11443;-77
2021/10/01 03:46:28;;;;;;;;;42.25;38.75;;;;;8.51;57.07;102881.22;5102771;28;11532;-76
2021/10/01 03:49:25;;;;;;;;;39.75;36.50;;;;;8.77;56.95;102885.00;5112313;28;11617;-78
2021/10/01 03:52:21;;;;;;;;;46.00;40.75;;;;;8.63;57.07;102886.53;5112594;28;11514;-77
2021/10/01 03:55:21;;;;;;;;;41.25;39.50;;;;;8.54;57.00;102897.25;5112559;28;11583;-78
2021/10/01 03:58:16;;;;;;;;;32.25;32.25;;;;;8.52;56.81;102890.34;5098657;28;12260;-76
2021/10/01 04:01:12;;;;;;;;;42.75;40.00;;;;;8.71;56.45;102893.50;5112495;28;12301;-77
2021/10/01 04:04:08;;;;;;;;;39.50;35.00;;;;;8.72;56.88;102896.00;5112451;28;11507;-76
2021/10/01 04:07:04;;;;;;;;;37.75;35.50;;;;;8.59;58.19;102890.94;5112478;28;11531;-77
2021/10/01 04:10:00;;;;;;;;;46.25;41.00;;;;;8.33;59.04;102887.91;5098942;28;11522;-77
2021/10/01 04:12:55;;;;;;;;;43.50;40.25;;;;;8.41;58.35;102892.16;5098710;28;12230;-77
2021/10/01 04:15:51;;;;;;;;;34.50;34.50;;;;;8.53;58.56;102897.50;5098502;28;11503;-77
2021/10/01 04:18:47;;;;;;;;;53.00;46.75;;;;;8.38;59.63;102887.19;5095652;28;11522;-77
2021/10/01 04:21:43;;;;;;;;;60.25;50.50;;;;;8.19;59.96;102888.63;5078108;28;11639;-75
2021/10/01 04:24:39;;;;;;;;;64.75;50.00;;;;;8.32;59.80;102891.78;5079312;28;11519;-72
2021/10/01 04:27:34;;;;;;;;;68.75;56.75;;;;;8.48;59.18;102895.53;5091882;28;12417;-72
2021/10/01 04:30:30;;;;;;;;;49.50;43.50;;;;;8.72;58.63;102896.00;5091653;28;11544;-72
2021/10/01 04:33:27;;;;;;;;;37.25;36.75;;;;;8.81;56.99;102890.81;5079124;28;11516;-72
2021/10/01 04:36:26;;;;;;;;;48.25;41.50;;;;;8.96;57.34;102893.66;5092195;28;11532;-72
2021/10/01 04:39:21;;;;;;;;;31.50;31.50;;;;;8.89;55.83;102887.53;5091758;28;11679;-73
2021/10/01 04:42:17;;;;;;;;;39.25;36.75;;;;;9.00;55.47;102886.53;5091184;28;11514;-72
2021/10/01 04:45:12;;;;;;;;;49.00;42.25;;;;;9.17;55.53;102894.63;5078138;28;11532;-72
2021/10/01 04:48:08;;;;;;;;;35.25;32.50;;;;;9.23;55.82;102896.31;5078354;28;11507;-72
2021/10/01 04:51:03;;;;;;;;;26.75;25.75;;;;;9.28;55.75;102899.13;5082096;28;11644;-72
2021/10/01 04:53:59;;;;;;;;;37.50;37.00;;;;;9.32;54.63;102899.41;5094712;28;11538;-72
2021/10/01 04:56:54;;;;;;;;;32.75;32.75;;;;;9.44;54.35;102897.25;5095753;28;11491;-71
2021/10/01 04:59:50;;;;;;;;;34.25;34.25;;;;;9.53;54.44;102890.09;5082361;28;11509;-72
2021/10/01 05:02:46;;;;;;;;;29.50;26.00;;;;;9.66;55.32;102900.66;5104269;28;12248;-69
2021/10/01 05:05:41;;;;;;;;;38.00;37.00;;;;;9.85;55.17;102909.28;5096620;28;11557;-69
2021/10/01 05:08:37;;;;;;;;;37.75;37.50;;;;;10.13;54.00;102902.44;5095244;28;11522;-69
2021/10/01 05:11:32;;;;;;;;;38.00;35.75;;;;;10.21;52.50;102904.66;5095349;28;11525;-69
2021/10/01 05:14:28;;;;;;;;;46.25;40.50;;;;;10.23;52.37;102908.00;5097041;28;11484;-68
2021/10/01 05:17:23;;;;;;;;;40.75;37.75;;;;;10.42;51.83;102904.69;5115641;28;11463;-68
2021/10/01 05:20:19;;;;;;;;;43.50;39.00;;;;;10.43;51.82;102911.91;5115864;28;11446;-68
2021/10/01 05:23:15;;;;;;;;;53.50;42.50;;;;;10.48;51.94;102909.13;5115100;28;11558;-68
2021/10/01 05:26:10;;;;;;;;;49.25;42.75;;;;;10.55;52.22;102916.03;5115242;28;11635;-68
2021/10/01 05:29:06;;;;;;;;;42.50;38.25;;;;;10.76;51.16;102916.88;5115050;28;11646;-70
2021/10/01 05:32:03;;;;;;;;;52.25;42.75;;;;;10.84;50.99;102913.53;5106607;28;11450;-69
2021/10/01 05:34:59;;;;;;;;;53.50;43.50;;;;;11.04;52.44;102920.13;5101623;28;11437;-69
2021/10/01 05:37:54;;;;;;;;;57.25;46.50;;;;;11.31;51.85;102919.81;5108266;28;11448;-69
2021/10/01 05:40:50;;;;;;;;;52.25;45.00;;;;;11.27;51.84;102927.84;5114044;28;12253;-70
2021/10/01 05:43:45;;;;;;;;;65.00;53.25;;;;;11.28;52.87;102923.16;5114869;28;11705;-69
2021/10/01 05:46:44;;;;;;;;;60.25;48.75;;;;;11.50;51.73;102920.00;5115324;28;11532;-69
2021/10/01 05:49:42;;;;;;;;;65.25;51.75;;;;;11.56;52.44;102918.88;5115074;28;11717;-69
2021/10/01 05:52:50;;;;;;;;;50.00;44.00;;;;;11.89;51.29;102915.44;5092662;28;11562;-69
2021/10/01 05:55:45;;;;;;;;;40.25;36.25;;;;;11.83;48.96;102912.97;5094756;28;11635;-69
2021/10/01 05:58:42;;;;;;;;;53.25;44.50;;;;;12.10;48.68;102916.13;5094360;28;11610;-69
2021/10/01 06:01:37;;;;;;;;;42.50;36.75;;;;;12.32;48.09;102923.19;5111305;28;12192;-69
2021/10/01 06:04:33;;;;;;;;;51.50;42.75;;;;;12.46;48.50;102922.25;5094311;28;12184;-67
2021/10/01 06:07:28;;;;;;;;;48.00;41.00;;;;;12.65;49.42;102922.38;5111467;28;11478;-70
2021/10/01 06:10:24;;;;;;;;;57.50;47.25;;;;;12.86;49.80;102920.22;5113110;28;11607;-71
2021/10/01 06:13:20;;;;;;;;;45.25;37.75;;;;;13.03;52.20;102925.34;5107850;28;11514;-72
2021/10/01 06:16:15;;;;;;;;;30.00;30.00;;;;;13.20;49.46;102925.78;5110914;28;11438;-72
2021/10/01 06:19:11;;;;;;;;;19.75;19.00;;;;;13.25;48.23;102922.09;5093262;28;11253;-72
2021/10/01 06:22:07;;;;;;;;;24.00;24.00;;;;;13.34;48.08;102921.16;5100708;28;10857;-72
2021/10/01 06:25:04;;;;;;;;;36.25;34.00;;;;;13.56;48.20;102920.59;5114471;28;10636;-72
2021/10/01 06:27:59;;;;;;;;;35.50;33.00;;;;;13.85;50.39;102922.44;5100458;28;11603;-69
2021/10/01 06:30:58;;;;;;;;;29.25;28.00;;;;;13.93;46.04;102924.56;5113604;28;10810;-71
2021/10/01 06:33:53;;;;;;;;;25.75;25.75;;;;;14.21;45.47;102927.53;5093827;28;10735;-72
2021/10/01 06:36:49;;;;;;;;;34.75;34.00;;;;;14.22;44.33;102926.38;5093728;28;10534;-71
2021/10/01 06:39:44;;;;;;;;;38.00;36.00;;;;;14.31;44.59;102938.50;5108684;28;10686;-71
2021/10/01 06:42:46;;;;;;;;;39.75;36.25;;;;;14.61;45.88;102934.41;5113186;28;10853;-72
2021/10/01 06:45:44;;;;;;;;;45.25;39.25;;;;;14.89;47.36;102927.81;5093508;28;10961;-70
2021/10/01 06:51:57;;;;;;;;;42.25;38.50;;;;;15.14;47.07;102926.50;5092925;28;11370;-71
2021/10/01 07:24:06;;;;;;;;;26.00;23.50;;;;;15.21;42.87;102921.34;5108022;28;9830;-69
2021/10/01 08:19:24;;;;;;;;;12.00;12.00;;;;;16.90;35.00;102896.00;5112410;28;9060;-72
2021/10/01 08:22:20;;;;;;;;;11.00;11.00;;;;;16.59;35.98;102896.78;5112256;28;9697;-71
2021/10/01 08:25:16;;;;;;;;;10.33;10.33;;;;;16.92;35.23;102880.56;5097979;28;9002;-72
2021/10/01 08:28:12;;;;;;;;;14.00;13.00;;;;;16.70;35.39;102888.97;5112753;28;9169;-72
2021/10/01 08:31:07;;;;;;;;;10.33;10.33;;;;;17.01;35.27;102880.59;5112100;28;9047;-72
2021/10/01 08:34:03;;;;;;;;;8.67;8.67;;;;;16.76;34.78;102879.31;5112120;28;9165;-72
2021/10/01 08:36:59;;;;;;;;;7.00;6.00;;;;;17.05;33.61;102883.59;5112373;28;9052;-73
2021/10/01 08:39:55;;;;;;;;;12.00;12.00;;;;;16.78;34.03;102881.78;5112097;28;8985;-73
2021/10/01 08:42:52;;;;;;;;;15.67;15.33;;;;;17.11;34.10;102869.16;5112094;28;9331;-73
2021/10/01 08:45:48;;;;;;;;;5.00;5.00;;;;;17.11;33.46;102876.72;5111638;28;9172;-73
2021/10/01 08:48:45;;;;;;;;;7.00;7.00;;;;;17.06;33.89;102874.03;5112013;28;8997;-73
2021/10/01 08:51:41;;;;;;;;;7.50;7.25;;;;;16.76;33.77;102861.72;5098597;28;8914;-73
2021/10/01 08:54:38;;;;;;;;;5.25;5.25;;;;;16.74;34.02;102855.66;5110992;28;8856;-75
2021/10/01 08:57:34;;;;;;;;;6.00;6.00;;;;;17.27;33.59;102861.13;5108486;28;9238;-74
2021/10/01 09:00:31;;;;;;;;;5.00;5.00;;;;;17.21;33.98;102857.66;5107314;28;8922;-75
2021/10/01 09:03:27;;;;;;;;;5.00;5.00;;;;;17.24;33.17;102851.41;5090922;28;8850;-74
2021/10/01 09:06:22;;;;;;;;;8.67;8.67;;;;;17.20;33.26;102852.41;5087684;28;8828;-75
2021/10/01 09:09:18;;;;;;;;;22.00;20.33;;;;;17.13;33.86;102855.66;5109718;28;8903;-74
2021/10/01 09:12:15;;;;;;;;;11.50;10.75;;;;;17.19;33.38;102847.97;5111636;28;8927;-74
2021/10/01 09:15:11;;;;;;;;;9.50;9.50;;;;;17.21;33.38;102843.69;5111360;28;8837;-74
2021/10/01 09:18:07;;;;;;;;;14.33;14.33;;;;;17.44;33.03;102836.00;5110911;28;8886;-74
2021/10/01 09:21:15;;;;;;;;;12.00;10.00;;;;;17.63;33.71;102835.69;5094908;28;8903;-74
2021/10/01 09:24:14;;;;;;;;;13.00;13.00;;;;;17.99;33.29;102835.41;5091359;28;8844;-75
2021/10/01 09:27:10;;;;;;;;;2.25;2.25;;;;;18.25;32.03;102843.81;5097418;28;8829;-74
2021/10/01 09:30:07;;;;;;;;;8.25;8.25;;;;;18.18;32.48;102835.09;5087725;28;8876;-74
2021/10/01 09:33:11;;;;;;;;;8.75;8.75;;;;;18.06;32.04;102834.94;5097482;28;8934;-75
2021/10/01 09:36:09;;;;;;;;;8.00;8.00;;;;;18.25;32.14;102835.41;5111064;28;8835;-73
2021/10/01 09:39:23;;;;;;;;;8.50;8.50;;;;;18.49;31.49;102834.06;5112173;28;8875;-75
2021/10/01 09:42:26;;;;;;;;;11.75;11.75;;;;;18.76;31.86;102835.63;5099821;28;8841;-76
2021/10/01 09:45:22;;;;;;;;;8.25;8.25;;;;;18.41;30.89;102832.91;5100928;28;8875;-75
2021/10/01 09:48:27;;;;;;;;;13.25;12.75;;;;;18.91;31.60;102821.06;5115018;28;8930;-76
2021/10/01 09:51:23;;;;;;;;;6.75;6.75;;;;;18.79;31.31;102823.78;5094871;28;8846;-75
2021/10/01 09:54:21;;;;;;;;;10.00;10.00;;;;;19.19;30.66;102821.44;5108437;28;8853;-76
2021/10/01 09:57:16;;;;;;;;;8.00;7.50;;;;;19.28;30.83;102822.19;5109603;28;8819;-74
2021/10/01 10:00:39;;;;;;;;;10.50;9.50;;;;;19.61;30.49;102821.53;5112859;28;8887;-76
2021/10/01 10:03:35;;;;;;;;;6.00;6.00;;;;;19.64;29.82;102807.63;5100592;28;8810;-74
2021/10/01 10:06:31;;;;;;;;;6.00;6.00;;;;;19.20;30.07;102822.25;5106511;28;8854;-78
2021/10/01 10:09:35;;;;;;;;;10.00;10.00;;;;;18.96;30.49;102826.50;5114277;28;8829;-76
2021/10/01 10:12:36;;;;;;;;;4.75;4.75;;;;;19.12;30.67;102823.94;5107197;28;8841;-75
2021/10/01 10:15:32;;;;;;;;;5.50;5.25;;;;;19.24;30.14;102826.84;5114702;28;8818;-74
2021/10/01 10:18:29;;;;;;;;;9.00;9.00;;;;;19.83;30.30;102821.19;5113791;28;8826;-75
2021/10/01 10:21:25;;;;;;;;;8.00;7.50;;;;;19.51;30.65;102813.47;5114067;28;8847;-76
2021/10/01 10:24:20;;;;;;;;;7.00;7.00;;;;;19.43;29.52;102816.00;5100572;28;8845;-76
2021/10/01 10:27:17;;;;;;;;;12.75;11.50;;;;;18.70;30.34;102818.19;5100657;28;8809;-75
2021/10/01 10:30:16;;;;;;;;;8.50;8.50;;;;;18.96;30.80;102820.06;5101203;28;8827;-76
2021/10/01 10:33:37;;;;;;;;;6.00;6.00;;;;;19.28;30.88;102815.78;5093892;28;8828;-75
2021/10/01 10:36:41;;;;;;;;;11.25;11.25;;;;;19.40;30.51;102805.47;5080803;28;8950;-77
2021/10/01 10:39:40;;;;;;;;;5.50;5.50;;;;;19.79;29.32;102809.00;5081681;28;8812;-75
2021/10/01 10:42:38;;;;;;;;;8.00;8.00;;;;;19.51;29.96;102813.47;5098263;28;8835;-77
2021/10/01 10:45:36;;;;;;;;;9.00;9.00;;;;;19.93;29.31;102808.69;5080528;28;8832;-75
2021/10/01 10:48:33;;;;;;;;;4.50;4.50;;;;;20.29;30.22;102813.66;5103052;28;8823;-77
2021/10/01 10:52:07;;;;;;;;;7.25;7.25;;;;;19.72;29.54;102805.94;5089198;28;8827;-75
2021/10/01 10:55:13;;;;;;;;;7.25;7.25;;;;;19.97;29.76;102799.25;5093371;28;8851;-76
2021/10/01 10:58:21;;;;;;;;;6.00;6.00;;;;;20.57;29.23;102794.22;5079724;28;8816;-75
2021/10/01 11:01:20;;;;;;;;;13.25;12.75;;;;;20.41;29.04;102793.22;5103810;28;8830;-77
2021/10/01 11:04:27;;;;;;;;;15.50;15.50;;;;;20.12;29.12;102796.97;5093543;28;8835;-76
2021/10/01 11:07:45;;;;;;;;;8.50;8.50;;;;;19.68;29.54;102797.34;5100890;28;8851;-78
2021/10/01 11:10:46;;;;;;;;;5.25;5.25;;;;;19.91;29.05;102794.19;5108991;28;8825;-76
2021/10/01 11:13:41;;;;;;;;;7.00;7.00;;;;;20.34;28.74;102790.97;5109680;28;8813;-75
2021/10/01 11:16:37;;;;;;;;;10.00;10.00;;;;;20.26;29.76;102789.06;5108719;28;8901;-75
2021/10/01 11:19:46;;;;;;;;;7.00;7.00;;;;;20.23;29.42;102779.31;5107358;28;8913;-78
2021/10/01 11:22:41;;;;;;;;;16.75;16.75;;;;;20.51;28.73;102779.53;5094610;28;8849;-75
2021/10/01 11:25:22;;;;;;;;;6.50;6.50;;;;;21.06;28.65;102783.78;5091824;28;8816;-76
2021/10/01 11:28:32;;;;;;;;;5.50;5.50;;;;;21.63;28.23;102779.16;5104640;28;8868;-76
2021/10/01 11:31:03;;;;;;;;;6.75;6.75;;;;;20.77;27.60;102778.41;5110731;28;9580;-77
2021/10/01 11:33:35;;;;;;;;;9.25;9.25;;;;;20.50;28.06;102775.09;5108142;28;8834;-77
2021/10/01 11:36:04;;;;;;;;;4.75;4.75;;;;;20.99;29.28;102775.13;5095160;28;8859;-76
2021/10/01 11:39:11;;;;;;;;;11.25;10.00;;;;;21.08;28.29;102772.19;5093201;28;8826;-75
2021/10/01 11:42:06;;;;;;;;;21.50;17.75;;;;;21.27;27.86;102761.19;5110058;28;8849;-78
2021/10/01 11:44:42;;;;;;;;;12.50;12.50;;;;;21.30;27.44;102768.91;5090701;28;8823;-77
2021/10/01 11:47:14;;;;;;;;;14.00;11.75;;;;;21.47;28.18;102765.03;5091766;28;8911;-76
2021/10/01 11:49:57;;;;;;;;;9.00;7.00;;;;;22.18;26.58;102774.75;5111130;28;8963;-75
2021/10/01 11:52:58;;;;;;;;;7.25;6.25;;;;;22.33;26.58;102771.13;5094633;28;9617;-76
2021/10/01 11:55:39;;;;;;;;;6.00;6.00;;;;;22.30;27.14;102757.75;5112151;28;8856;-77
2021/10/01 11:58:20;;;;;;;;;8.75;8.75;;;;;22.00;26.43;102757.28;5094253;28;9592;-78
2021/10/01 12:00:48;;;;;;;;;8.50;8.50;;;;;21.36;27.37;102758.22;5109150;28;8840;-76
2021/10/01 12:03:33;;;;;;;;;13.00;13.00;;;;;21.92;26.49;102755.44;5106235;28;8870;-76
2021/10/01 12:06:03;;;;;;;;;9.00;9.00;;;;;21.46;27.44;102763.34;5111885;28;8849;-78
2021/10/01 12:09:04;;;;;;;;;6.50;6.50;;;;;21.13;27.28;102752.25;5095585;28;8825;-76
2021/10/01 12:12:08;;;;;;;;;9.00;9.00;;;;;21.34;27.03;102740.88;5107535;28;8814;-76
2021/10/01 12:15:05;;;;;;;;;6.50;6.50;;;;;21.62;26.76;102738.94;5109391;28;8845;-75
2021/10/01 12:18:01;;;;;;;;;26.50;22.00;;;;;21.22;26.90;102752.94;5096379;28;8848;-77
2021/10/01 12:21:00;;;;;;;;;7.50;7.50;;;;;20.98;27.42;102741.72;5108959;28;9581;-77
2021/10/01 12:24:02;;;;;;;;;11.50;11.50;;;;;20.59;27.27;102740.44;5111819;28;8825;-77
2021/10/01 12:26:49;;;;;;;;;12.00;12.00;;;;;20.63;27.83;102744.19;5094206;28;8843;-76
2021/10/01 12:29:49;;;;;;;;;7.25;7.00;;;;;20.88;27.92;102733.78;5104550;28;8843;-75
2021/10/01 12:32:47;;;;;;;;;11.67;11.67;;;;;20.57;27.51;102737.16;5096729;28;8864;-76
2021/10/01 12:35:15;;;;;;;;;17.50;17.50;;;;;20.74;27.92;102736.94;5110218;28;8941;-77
2021/10/01 12:38:00;;;;;;;;;11.25;11.25;;;;;21.15;27.89;102729.38;5096458;28;10060;-78
2021/10/01 12:40:28;;;;;;;;;8.00;8.00;;;;;21.29;27.45;102738.31;5093646;28;8855;-78
2021/10/01 12:42:56;;;;;;;;;13.75;13.75;;;;;21.30;27.80;102740.75;5111024;28;8887;-75
2021/10/01 12:45:27;;;;;;;;;10.25;10.25;;;;;21.09;27.08;102756.97;5112366;28;8841;-75
2021/10/01 12:48:28;;;;;;;;;6.25;6.25;;;;;20.80;27.16;102746.78;5090199;28;8837;-75
2021/10/01 12:51:23;;;;;;;;;6.25;6.25;;;;;20.34;27.21;102736.75;5106457;28;8826;-76
2021/10/01 12:54:22;;;;;;;;;2.00;2.00;;;;;20.53;27.39;102728.59;5109106;28;8927;-76
2021/10/01 12:57:11;;;;;;;;;10.00;10.00;;;;;20.66;27.46;102741.50;5073473;28;9618;-75
2021/10/01 12:59:52;;;;;;;;;10.75;10.25;;;;;20.75;27.32;102736.56;5106335;28;8944;-74
2021/10/01 13:02:50;;;;;;;;;11.50;11.50;;;;;21.42;27.81;102727.84;5106841;28;8835;-76
2021/10/01 13:05:24;;;;;;;;;6.25;6.25;;;;;20.87;27.61;102726.50;5088220;28;8939;-76
2021/10/01 13:08:20;;;;;;;;;8.00;8.00;;;;;20.74;27.18;102723.69;5108958;28;8837;-74
2021/10/01 13:11:16;;;;;;;;;6.50;6.50;;;;;20.97;26.97;102728.84;5101839;28;8917;-75
2021/10/01 13:14:15;;;;;;;;;4.75;4.75;;;;;21.07;27.53;102720.72;5099174;28;8827;-75
2021/10/01 13:17:19;;;;;;;;;9.75;8.75;;;;;20.91;27.31;102724.63;5114068;28;8822;-73
2021/10/01 13:20:15;;;;;;;;;6.00;6.00;;;;;20.54;28.28;102719.81;5103944;28;8864;-75
2021/10/01 13:23:13;;;;;;;;;11.00;11.00;;;;;20.42;28.17;102721.78;5112746;28;8796;-74
2021/10/01 13:25:46;;;;;;;;;8.25;8.25;;;;;20.23;28.89;102717.50;5098905;28;8849;-74
2021/10/01 13:28:46;;;;;;;;;7.50;7.50;;;;;20.44;28.37;102706.22;5115113;28;8825;-73
2021/10/01 13:31:48;;;;;;;;;7.50;7.50;;;;;20.13;29.46;102703.91;5115454;28;8924;-73
2021/10/01 13:34:21;;;;;;;;;8.75;8.75;;;;;20.01;29.11;102715.13;5116730;28;8892;-74
2021/10/01 13:36:48;;;;;;;;;12.25;12.25;;;;;19.64;29.10;102706.59;5116375;28;8850;-74
2021/10/01 13:39:43;;;;;;;;;18.75;18.75;;;;;19.69;28.93;102702.72;5115186;28;8896;-72
2021/10/01 13:42:40;;;;;;;;;15.25;11.25;;;;;19.40;29.49;102709.25;5114605;28;8888;-74
2021/10/01 13:45:09;;;;;;;;;11.25;11.25;;;;;19.52;29.04;102709.28;5115819;28;8851;-74
2021/10/01 13:48:05;;;;;;;;;10.00;9.50;;;;;19.26;29.47;102712.31;5114873;28;8842;-75
2021/10/01 13:51:08;;;;;;;;;11.25;11.25;;;;;19.20;29.40;102708.06;5115407;28;8928;-73
2021/10/01 13:54:03;;;;;;;;;11.25;11.25;;;;;19.28;29.88;102711.97;5098025;28;8835;-74
2021/10/01 13:56:59;;;;;;;;;17.00;17.00;;;;;19.39;29.71;102704.78;5094622;28;8844;-74
2021/10/01 13:59:55;;;;;;;;;15.50;14.75;;;;;19.17;29.66;102700.34;5104107;28;8922;-74
2021/10/01 14:02:23;;;;;;;;;11.00;11.00;;;;;19.12;29.89;102689.31;5115953;28;8837;-74
2021/10/01 14:05:20;;;;;;;;;14.00;14.00;;;;;19.07;30.43;102698.75;5101401;28;8845;-75
2021/10/01 14:08:18;;;;;;;;;20.25;16.25;;;;;18.88;29.77;102701.19;5093274;28;8846;-75
2021/10/01 14:10:46;;;;;;;;;10.00;10.00;;;;;19.26;29.42;102701.09;5100315;28;8868;-75
2021/10/01 14:13:41;;;;;;;;;13.25;13.25;;;;;19.00;30.07;102692.84;5114602;28;8845;-76
2021/10/01 14:16:37;;;;;;;;;25.25;25.00;;;;;18.82;29.94;102694.94;5114217;28;8840;-75
2021/10/01 14:19:32;;;;;;;;;22.50;20.50;;;;;18.79;30.81;102700.44;5113338;28;8853;-73
2021/10/01 14:22:00;;;;;;;;;19.50;19.50;;;;;18.40;30.99;102696.78;5114213;28;8807;-73
2021/10/01 14:24:55;;;;;;;;;16.25;15.00;;;;;18.00;30.84;102694.28;5113887;28;8957;-76
2021/10/01 14:27:56;;;;;;;;;15.50;15.25;;;;;17.94;31.40;102698.44;5113802;28;8845;-75
2021/10/01 14:30:52;;;;;;;;;21.33;19.67;;;;;17.93;31.98;102698.72;5114009;28;8818;-72
2021/10/01 14:33:47;;;;;;;;;22.00;21.33;;;;;17.64;32.55;102702.22;5114254;28;9680;-74
2021/10/01 14:36:15;;;;;;;;;19.33;19.00;;;;;17.65;32.39;102699.09;5114417;28;9170;-73
2021/10/01 14:38:57;;;;;;;;;38.00;34.00;;;;;17.44;32.24;102698.13;5113050;28;8924;-73
2021/10/01 14:41:52;;;;;;;;;37.50;34.50;;;;;17.51;32.75;102698.44;5080034;28;9405;-74
2021/10/01 14:44:48;;;;;;;;;49.00;38.50;;;;;17.54;32.78;102694.16;5093601;28;9629;-71
2021/10/01 14:47:43;;;;;;;;;42.50;36.50;;;;;17.34;33.33;102698.44;5091194;28;10162;-70
2021/10/01 14:50:39;;;;;;;;;45.75;37.25;;;;;17.24;33.18;102694.81;5093058;28;10081;-71
2021/10/01 14:53:36;;;;;;;;;30.75;30.50;;;;;17.09;33.39;102700.06;5093322;28;10091;-70